Time;durP1;ratioP1;P1;durP2;ratioP2;P2;SDS_P1;SDS_P2;PMS_P1;PMS_P2;Temp;Humidity;BMP_temperature;BMP_pressure;BME280_temperature;BME280_humidity;BME280_pressure;Samples;Min_cycle;Max_cycle;Signal;HPM_P1;HPM_P2
2023/11/26 00:00:32;;;;;;;;;;;;;;;4.04;40.39;99954.50;4959869;29;19921;-81
2023/11/26 00:03:26;;;;;;;;;;;;;;;4.15;38.45;99956.78;4961729;28;19929;-81
2023/11/26 00:06:17;;;;;;;;;;;;;;;3.88;39.83;99961.97;4963935;28;19933;-80
2023/11/26 00:09:13;;;;;;;;;;;;;;;4.52;38.83;99961.31;4964169;28;19913;-82
2023/11/26 00:12:57;;;;;;;;;;;;;;;4.78;37.04;99953.63;4994271;28;19913;-82
2023/11/26 00:16:03;;;;;;;;;;;;;;;4.69;38.03;99948.13;4983962;28;19921;-82
2023/11/26 00:18:53;;;;;;;;;;;;;;;4.97;39.37;99951.69;4966082;28;19913;-82
2023/11/26 00:22:07;;;;;;;;;;;;;;;4.48;38.68;99951.41;4964857;28;19917;-82
2023/11/26 00:24:57;;;;;;;;;;;;;;;4.76;37.49;99941.56;4957277;28;19999;-82
2023/11/26 00:28:01;;;;;;;;;;;;;;;4.82;35.58;99940.38;4964569;28;19952;-81
2023/11/26 00:38:22;;;;;;;;;;;;;;;5.10;39.17;99944.72;4964282;28;19913;-83
2023/11/26 00:41:18;;;;;;;;;;;;;;;5.21;37.45;99943.44;4964572;28;19913;-83
2023/11/26 00:44:11;;;;;;;;;;;;;;;3.76;38.37;99943.56;4961514;28;19923;-81
2023/11/26 00:47:07;;;;;;;;;;;;;;;3.61;38.28;99945.66;4958723;29;19925;-81
2023/11/26 00:50:01;;;;;;;;;;;;;;;3.41;38.67;99952.88;4958618;29;19918;-81
2023/11/26 00:53:35;;;;;;;;;;;;;;;3.36;38.80;99944.06;4959133;29;19914;-81
2023/11/26 00:56:48;;;;;;;;;;;;;;;3.38;39.55;99956.16;4957799;29;19926;-81
2023/11/26 00:59:43;;;;;;;;;;;;;;;4.21;37.17;99955.63;4963456;29;19922;-80
2023/11/26 01:06:06;;;;;;;;;;;;;;;3.44;38.65;99963.06;5076115;23;20388;-80
2023/11/26 01:08:57;;;;;;;;;;;;;;;2.91;40.31;99956.91;4952223;28;19919;-80
2023/11/26 01:11:45;;;;;;;;;;;;;;;2.94;39.90;99959.03;4960340;29;20288;-80
2023/11/26 01:14:30;;;;;;;;;;;;;;;3.63;38.56;99954.25;4960507;29;19918;-80
2023/11/26 01:17:18;;;;;;;;;;;;;;;4.13;37.41;99960.84;4961075;29;20397;-80
2023/11/26 01:20:08;;;;;;;;;;;;;;;4.32;39.71;99951.66;4962079;29;20311;-80
2023/11/26 01:22:57;;;;;;;;;;;;;;;4.02;40.34;99954.78;4964305;29;19915;-80
2023/11/26 01:25:47;;;;;;;;;;;;;;;3.68;39.26;99948.81;4963424;29;19915;-81
2023/11/26 01:28:32;;;;;;;;;;;;;;;4.30;41.71;99943.09;4963463;29;19915;-80
2023/11/26 01:31:21;;;;;;;;;;;;;;;4.29;39.91;99952.25;4948396;29;19918;-80
2023/11/26 01:34:14;;;;;;;;;;;;;;;4.37;40.10;99952.69;4981491;28;19906;-82
2023/11/26 01:37:29;;;;;;;;;;;;;;;4.71;39.62;99948.63;4988860;28;19929;-82
2023/11/26 01:40:21;;;;;;;;;;;;;;;4.79;42.22;99951.72;4982257;28;19925;-82
2023/11/26 01:43:45;;;;;;;;;;;;;;;4.79;39.65;99952.53;4991137;28;19921;-82
2023/11/26 01:46:45;;;;;;;;;;;;;;;4.81;39.52;99944.16;4979558;28;19929;-81
2023/11/26 01:49:37;;;;;;;;;;;;;;;4.62;39.77;99952.28;4992039;28;19914;-81
2023/11/26 01:52:38;;;;;;;;;;;;;;;4.57;39.68;99953.16;4968645;28;19929;-81
2023/11/26 01:55:30;;;;;;;;;;;;;;;4.69;39.75;99955.38;4976323;28;19922;-80
2023/11/26 01:58:18;;;;;;;;;;;;;;;4.58;41.31;99953.94;4969564;28;19914;-80
2023/11/26 02:01:07;;;;;;;;;;;;;;;4.53;42.44;99952.16;4971491;28;19914;-80
2023/11/26 02:03:59;;;;;;;;;;;;;;;4.67;41.09;99957.59;4975580;28;20299;-80
2023/11/26 02:06:52;;;;;;;;;;;;;;;4.66;42.15;99945.22;4946559;29;19918;-81
2023/11/26 02:09:44;;;;;;;;;;;;;;;4.71;41.65;99953.22;4963166;28;19914;-80
2023/11/26 02:12:34;;;;;;;;;;;;;;;4.77;41.24;99946.66;4956584;28;19914;-80
2023/11/26 02:15:26;;;;;;;;;;;;;;;4.75;40.92;99948.84;4962443;28;20300;-80
2023/11/26 02:18:18;;;;;;;;;;;;;;;4.74;43.73;99955.31;4949499;28;19918;-80
2023/11/26 02:21:08;;;;;;;;;;;;;;;4.86;42.05;99955.66;4944578;29;19914;-80
2023/11/26 02:23:59;;;;;;;;;;;;;;;4.92;41.78;99954.47;4960254;28;19914;-81
2023/11/26 02:26:51;;;;;;;;;;;;;;;4.84;41.52;99957.81;4969865;28;19914;-80
2023/11/26 02:29:41;;;;;;;;;;;;;;;4.77;41.39;99962.00;4961251;28;19922;-80
2023/11/26 02:32:33;;;;;;;;;;;;;;;4.76;42.16;99961.22;4962678;28;19914;-80
2023/11/26 02:35:25;;;;;;;;;;;;;;;4.71;42.18;99963.97;4971270;28;19919;-80
2023/11/26 02:38:17;;;;;;;;;;;;;;;4.32;43.33;99963.53;4948069;28;19918;-80
2023/11/26 02:41:06;;;;;;;;;;;;;;;3.84;46.00;99958.28;4959552;28;19914;-80
2023/11/26 02:43:56;;;;;;;;;;;;;;;3.77;45.92;99961.31;4957307;28;19918;-80
2023/11/26 02:46:48;;;;;;;;;;;;;;;3.73;44.80;99972.94;4960755;28;20391;-80
2023/11/26 02:49:37;;;;;;;;;;;;;;;3.78;44.36;99967.50;4956006;29;20380;-80
2023/11/26 02:52:27;;;;;;;;;;;;;;;3.90;44.23;99957.13;4956368;28;19914;-80
2023/11/26 02:55:18;;;;;;;;;;;;;;;4.04;43.98;99952.63;4959074;28;20372;-80
2023/11/26 02:58:11;;;;;;;;;;;;;;;3.96;43.67;99945.22;4961433;28;19914;-80
2023/11/26 03:01:03;;;;;;;;;;;;;;;4.13;43.83;99964.31;4944410;29;20390;-80
2023/11/26 03:03:55;;;;;;;;;;;;;;;4.15;43.26;99951.41;4957892;28;19915;-80
2023/11/26 03:06:47;;;;;;;;;;;;;;;4.02;43.38;99954.78;4954654;29;19918;-80
2023/11/26 03:15:59;;;;;;;;;;;;;;;3.99;46.28;99935.75;4972917;28;19918;-80
2023/11/26 03:18:49;;;;;;;;;;;;;;;4.18;44.48;99934.66;4979624;28;19938;-80
2023/11/26 03:21:43;;;;;;;;;;;;;;;4.29;45.93;99928.03;4945761;28;20376;-80
2023/11/26 03:24:35;;;;;;;;;;;;;;;4.63;43.82;99930.44;4949649;28;19916;-80
2023/11/26 03:27:25;;;;;;;;;;;;;;;4.70;45.20;99947.03;4962847;28;19914;-80
2023/11/26 03:30:17;;;;;;;;;;;;;;;4.41;43.51;99941.06;4947009;28;20303;-80
2023/11/26 03:33:09;;;;;;;;;;;;;;;4.20;43.87;99937.88;4962753;28;19915;-81
2023/11/26 03:35:58;;;;;;;;;;;;;;;4.35;44.31;99952.19;4948544;28;19918;-81
2023/11/26 03:38:50;;;;;;;;;;;;;;;4.50;43.11;99943.88;4974773;28;20397;-80
2023/11/26 03:41:40;;;;;;;;;;;;;;;4.56;43.63;99950.78;4944739;29;19914;-80
2023/11/26 03:44:31;;;;;;;;;;;;;;;4.47;44.08;99944.47;4964845;29;19915;-81
2023/11/26 03:47:23;;;;;;;;;;;;;;;4.62;44.74;99944.22;4954374;29;19915;-79
2023/11/26 03:50:15;;;;;;;;;;;;;;;4.85;43.21;99955.94;4968833;28;20375;-80
2023/11/26 03:53:04;;;;;;;;;;;;;;;4.83;43.83;99958.13;4959166;28;19914;-80
2023/11/26 03:55:56;;;;;;;;;;;;;;;4.84;43.94;99957.81;4960900;28;20384;-80
2023/11/26 03:58:48;;;;;;;;;;;;;;;4.96;43.11;99960.06;4956055;29;19914;-80
2023/11/26 04:01:37;;;;;;;;;;;;;;;3.93;45.51;99956.53;4954967;29;19914;-80
2023/11/26 04:04:29;;;;;;;;;;;;;;;3.86;45.38;99964.94;4944060;29;19914;-80
2023/11/26 04:07:21;;;;;;;;;;;;;;;3.90;46.00;99969.78;4955297;29;19915;-80
2023/11/26 04:10:10;;;;;;;;;;;;;;;3.91;45.90;99968.69;4963593;28;19909;-83
2023/11/26 04:13:19;;;;;;;;;;;;;;;3.59;47.34;99969.34;4950550;28;19913;-83
2023/11/26 04:16:27;;;;;;;;;;;;;;;3.77;47.67;99965.88;5275296;23;19907;-80
2023/11/26 04:19:50;;;;;;;;;;;;;;;3.78;47.50;99968.31;4959849;28;19929;-82
2023/11/26 04:30:39;;;;;;;;;;;;;;;3.51;47.35;99988.78;4938882;29;19899;-80
2023/11/26 04:33:33;;;;;;;;;;;;;;;3.35;45.20;99983.56;4944386;29;19923;-80
2023/11/26 04:36:31;;;;;;;;;;;;;;;3.32;43.15;99980.66;4936825;29;19930;-81
2023/11/26 04:39:41;;;;;;;;;;;;;;;3.24;41.03;99979.41;4927076;29;19919;-81
2023/11/26 04:42:55;;;;;;;;;;;;;;;3.25;41.29;99981.00;4935578;29;19922;-81
2023/11/26 04:57:31;;;;;;;;;;;;;;;3.58;40.49;99983.88;4954603;29;19925;-81
2023/11/26 05:01:10;;;;;;;;;;;;;;;3.58;41.28;99983.88;4951556;29;19922;-82
2023/11/26 05:05:00;;;;;;;;;;;;;;;3.38;40.77;99991.09;4943666;29;19923;-81
2023/11/26 05:08:16;;;;;;;;;;;;;;;3.51;41.06;99999.53;4932303;29;19922;-80
2023/11/26 05:11:03;;;;;;;;;;;;;;;3.68;40.98;100006.06;4926436;29;20385;-81
2023/11/26 05:13:51;;;;;;;;;;;;;;;3.29;40.32;100003.53;4934040;28;19911;-83
2023/11/26 05:21:09;;;;;;;;;;;;;;;3.12;39.98;100032.72;4966151;28;19922;-83
2023/11/26 05:37:22;;;;;;;;;;;;;;;3.47;39.88;100041.50;5000119;28;19905;-83
2023/11/26 05:54:54;;;;;;;;;;;;;;;3.31;39.54;100065.84;3037014;26;19913;-84
2023/11/26 06:54:25;;;;;;;;;;;;;;;2.99;42.19;100127.38;4983783;28;19903;-86
2023/11/26 07:41:00;;;;;;;;;;;;;;;4.28;41.08;100183.97;5201332;23;19907;-81
2023/11/26 07:50:20;;;;;;;;;;;;;;;4.96;39.78;100197.13;5856341;23;19906;-83
2023/11/26 07:53:16;;;;;;;;;;;;;;;5.00;40.97;100195.44;4960753;29;19906;-84
2023/11/26 07:56:24;;;;;;;;;;;;;;;5.25;38.77;100205.06;4962339;29;19902;-83
2023/11/26 07:59:12;;;;;;;;;;;;;;;5.10;39.56;100208.78;4964652;29;19898;-84
2023/11/26 08:02:08;;;;;;;;;;;;;;;5.03;41.06;100219.09;4949428;29;19899;-83
2023/11/26 08:05:03;;;;;;;;;;;;;;;5.57;40.12;100210.50;4962161;29;19899;-83
2023/11/26 08:07:51;;;;;;;;;;;;;;;5.44;40.77;100213.94;4943013;29;19899;-83
2023/11/26 08:10:40;;;;;;;;;;;;;;;5.48;40.21;100221.16;4942986;29;19911;-84
2023/11/26 08:13:37;;;;;;;;;;;;;;;5.74;40.00;100218.06;4935670;29;19907;-83
2023/11/26 08:16:46;;;;;;;;;;;;;;;6.11;39.85;100217.16;4942164;29;19907;-84
2023/11/26 08:19:58;;;;;;;;;;;;;;;5.86;38.89;100224.56;4945027;29;19927;-83
2023/11/26 08:22:46;;;;;;;;;;;;;;;6.00;38.69;100227.34;4938411;28;19926;-83
2023/11/26 08:25:58;;;;;;;;;;;;;;;6.10;38.28;100223.66;5352729;23;19914;-84
2023/11/26 08:28:49;;;;;;;;;;;;;;;6.11;38.21;100227.97;4971892;29;19903;-83
2023/11/26 08:31:50;;;;;;;;;;;;;;;6.25;37.43;100228.78;4966490;29;19899;-83
2023/11/26 08:35:01;;;;;;;;;;;;;;;6.44;37.77;100232.22;4946558;29;19902;-83
2023/11/26 08:44:53;;;;;;;;;;;;;;;6.95;36.72;100231.19;5009629;23;19906;-83
2023/11/26 08:48:03;;;;;;;;;;;;;;;7.04;36.58;100242.88;4957763;29;19906;-80
2023/11/26 08:53:59;;;;;;;;;;;;;;;7.26;36.64;100245.66;5015228;23;19913;-82
2023/11/26 08:59:48;;;;;;;;;;;;;;;7.58;36.53;100248.13;5301609;23;19913;-84
2023/11/26 09:02:47;;;;;;;;;;;;;;;7.63;36.39;100250.72;4965523;28;19911;-83
2023/11/26 09:05:51;;;;;;;;;;;;;;;7.64;36.30;100256.94;4963729;28;19906;-83
2023/11/26 09:08:37;;;;;;;;;;;;;;;7.63;36.34;100258.03;4963320;28;19907;-83
2023/11/26 09:11:26;;;;;;;;;;;;;;;7.75;35.59;100261.00;4965119;28;19906;-83
2023/11/26 09:14:13;;;;;;;;;;;;;;;7.82;36.50;100255.16;4967460;28;19923;-83
2023/11/26 09:17:00;;;;;;;;;;;;;;;7.90;35.57;100257.13;4963467;28;19918;-83
2023/11/26 09:19:52;;;;;;;;;;;;;;;7.96;36.07;100261.31;5238392;23;19906;-82
2023/11/26 09:22:42;;;;;;;;;;;;;;;8.01;36.02;100266.59;4983152;28;19906;-83
2023/11/26 09:28:49;;;;;;;;;;;;;;;8.28;38.33;100276.47;5714900;23;19907;-81
2023/11/26 09:34:43;;;;;;;;;;;;;;;8.62;35.90;100278.56;5419550;23;19906;-83
2023/11/26 09:43:34;;;;;;;;;;;;;;;8.71;34.74;100282.91;5116728;23;19906;-83
2023/11/26 09:46:25;;;;;;;;;;;;;;;8.95;35.22;100277.09;4970724;29;19903;-82
2023/11/26 09:49:12;;;;;;;;;;;;;;;9.01;34.16;100275.84;5158841;23;19907;-83
2023/11/26 09:52:00;;;;;;;;;;;;;;;9.08;33.88;100276.19;4961909;28;19923;-81
2023/11/26 09:54:47;;;;;;;;;;;;;;;9.05;32.32;100276.00;4975753;28;19927;-82
2023/11/26 10:00:34;;;;;;;;;;;;;;;9.36;36.29;100272.06;5315947;23;19933;-83
2023/11/26 10:12:16;;;;;;;;;;;;;;;9.76;34.34;100275.44;4941658;29;19907;-85
2023/11/26 10:15:31;;;;;;;;;;;;;;;10.11;33.35;100268.03;5459249;23;19921;31
2023/11/26 10:18:19;;;;;;;;;;;;;;;10.44;34.26;100275.66;5552624;23;20038;-83
2023/11/26 10:21:10;;;;;;;;;;;;;;;10.31;32.54;100268.53;5288923;23;19911;-84
2023/11/26 10:27:20;;;;;;;;;;;;;;;10.35;31.35;100261.31;4325264;23;19914;-84
2023/11/26 10:33:09;;;;;;;;;;;;;;;10.17;31.94;100268.69;5435666;23;19907;-82
2023/11/26 10:38:59;;;;;;;;;;;;;;;10.67;31.94;100274.28;5610415;23;19907;-81
2023/11/26 10:41:49;;;;;;;;;;;;;;;10.98;30.38;100266.63;4957184;28;20384;-80
2023/11/26 10:44:41;;;;;;;;;;;;;;;11.52;31.36;100264.03;4972385;23;19915;-81
2023/11/26 10:47:35;;;;;;;;;;;;;;;11.07;30.07;100267.38;4963223;28;19923;-81
2023/11/26 10:50:21;;;;;;;;;;;;;;;11.41;28.53;100271.81;4956563;28;19907;-82
2023/11/26 10:53:29;;;;;;;;;;;;;;;11.43;28.55;100274.97;4960133;28;19931;-81
2023/11/26 10:56:17;;;;;;;;;;;;;;;11.21;29.12;100274.50;4964645;28;19911;-81
2023/11/26 10:59:12;;;;;;;;;;;;;;;11.07;30.34;100280.19;4947323;28;19907;-81
2023/11/26 11:02:04;;;;;;;;;;;;;;;10.87;30.74;100273.56;4951559;28;19919;-81
2023/11/26 11:04:56;;;;;;;;;;;;;;;10.95;30.41;100278.16;4971471;28;19906;-80
2023/11/26 11:11:02;;;;;;;;;;;;;;;11.19;31.00;100282.19;4280849;27;19907;-82
2023/11/26 11:13:55;;;;;;;;;;;;;;;11.08;36.16;100288.00;4947458;28;19923;-87
2023/11/26 11:16:45;;;;;;;;;;;;;;;11.40;35.76;100283.00;4941491;29;19915;-87
2023/11/26 11:19:48;;;;;;;;;;;;;;;11.69;31.78;100282.94;4939466;28;19931;-87
2023/11/26 11:22:42;;;;;;;;;;;;;;;11.57;32.28;100291.06;4953109;28;19907;-88
2023/11/26 11:25:32;;;;;;;;;;;;;;;11.38;31.79;100283.34;4952513;28;19907;-87
2023/11/26 11:28:19;;;;;;;;;;;;;;;11.77;36.80;100282.13;4953174;28;19923;-82
2023/11/26 11:31:12;;;;;;;;;;;;;;;12.16;33.38;100283.53;4941967;29;19923;-86
2023/11/26 11:34:02;;;;;;;;;;;;;;;12.49;37.69;100291.69;5424113;23;19918;-83
2023/11/26 11:36:53;;;;;;;;;;;;;;;12.63;39.12;100296.81;5011320;23;19907;-87
2023/11/26 11:46:50;;;;;;;;;;;;;;;13.08;37.67;100285.78;4950483;28;19899;-85
2023/11/26 11:49:53;;;;;;;;;;;;;;;12.71;34.99;100287.72;4956891;23;19911;-86
2023/11/26 11:52:43;;;;;;;;;;;;;;;12.19;33.39;100287.50;4951490;29;19903;-85
2023/11/26 11:55:33;;;;;;;;;;;;;;;12.65;36.88;100289.06;4948176;29;19899;-87
2023/11/26 11:58:22;;;;;;;;;;;;;;;12.57;37.01;100293.50;4933459;28;19907;-87
2023/11/26 12:01:13;;;;;;;;;;;;;;;11.94;37.53;100294.78;4940281;28;19907;-84
2023/11/26 12:04:07;;;;;;;;;;;;;;;11.81;38.13;100291.22;5348038;23;19906;-85
2023/11/26 12:06:52;;;;;;;;;;;;;;;11.90;37.99;100289.22;4971796;28;19935;-83
2023/11/26 12:09:38;;;;;;;;;;;;;;;11.94;37.73;100292.84;4966081;28;19922;-82
2023/11/26 12:12:23;;;;;;;;;;;;;;;11.93;37.72;100285.84;4983604;28;19906;-84
2023/11/26 12:15:08;;;;;;;;;;;;;;;12.05;37.91;100295.16;4969348;28;19907;-83
2023/11/26 12:18:00;;;;;;;;;;;;;;;12.12;37.26;100288.06;4970246;28;19927;-84
2023/11/26 12:20:50;;;;;;;;;;;;;;;12.28;38.43;100286.28;4979618;28;19910;-83
2023/11/26 12:23:42;;;;;;;;;;;;;;;12.84;38.36;100298.31;4970313;28;19911;-84
2023/11/26 12:26:38;;;;;;;;;;;;;;;12.92;37.42;100295.78;4963642;28;19926;-84
2023/11/26 12:29:37;;;;;;;;;;;;;;;12.87;36.59;100296.81;4963687;28;19906;-84
2023/11/26 12:32:28;;;;;;;;;;;;;;;12.79;36.65;100289.56;4986259;28;19910;-84
2023/11/26 12:35:20;;;;;;;;;;;;;;;12.44;36.84;100287.22;4968334;28;19906;-83
2023/11/26 12:38:05;;;;;;;;;;;;;;;11.84;38.31;100285.09;4956297;28;19930;-83
2023/11/26 12:40:52;;;;;;;;;;;;;;;12.03;37.70;100275.66;4966505;28;19918;-83
2023/11/26 12:43:42;;;;;;;;;;;;;;;12.43;37.56;100282.13;4979837;28;19926;-83
2023/11/26 12:46:28;;;;;;;;;;;;;;;12.19;37.74;100284.78;4978900;28;19912;-83
2023/11/26 12:49:14;;;;;;;;;;;;;;;12.96;39.04;100283.06;4966363;28;19907;-83
2023/11/26 12:52:07;;;;;;;;;;;;;;;12.96;35.99;100283.06;4952115;28;19911;-83
2023/11/26 12:54:54;;;;;;;;;;;;;;;13.32;35.45;100280.31;4955860;28;19906;-83
2023/11/26 12:57:41;;;;;;;;;;;;;;;18.93;28.51;100282.63;4971363;28;19906;-83
2023/11/26 13:03:55;;;;;;;;;;;;;;;21.19;22.76;100290.16;4962975;29;19906;-83
2023/11/26 13:07:36;;;;;;;;;;;;;;;20.05;24.99;100297.47;4963726;28;19942;-83
2023/11/26 13:10:51;;;;;;;;;;;;;;;20.72;23.60;100303.19;4962729;28;19907;-83
2023/11/26 13:13:40;;;;;;;;;;;;;;;20.69;22.81;100303.16;4976200;28;19907;-84
2023/11/26 13:16:35;;;;;;;;;;;;;;;19.12;23.93;100298.13;4959461;28;19911;-83
2023/11/26 13:22:30;;;;;;;;;;;;;;;23.41;23.11;100295.66;4940727;29;19911;-84
2023/11/26 13:25:22;;;;;;;;;;;;;;;22.25;21.26;100300.88;4936829;29;19926;-87
2023/11/26 13:28:16;;;;;;;;;;;;;;;21.16;21.45;100297.28;4930330;29;19915;-88
2023/11/26 13:31:32;;;;;;;;;;;;;;;21.56;21.62;100298.78;4930633;29;19923;-87
2023/11/26 13:40:39;;;;;;;;;;;;;;;20.12;23.03;100289.22;4954571;29;19911;-86
2023/11/26 13:43:32;;;;;;;;;;;;;;;18.36;24.87;100286.81;5070098;23;19907;-86
2023/11/26 13:46:25;;;;;;;;;;;;;;;19.21;24.62;100288.34;4950834;28;19910;-87
2023/11/26 13:55:35;;;;;;;;;;;;;;;20.13;23.08;100288.03;5066706;23;20303;-87
2023/11/26 13:58:27;;;;;;;;;;;;;;;20.17;23.30;100291.59;4952940;28;19918;-86
2023/11/26 14:01:17;;;;;;;;;;;;;;;19.67;23.47;100300.84;4954892;28;19915;-86
2023/11/26 14:04:09;;;;;;;;;;;;;;;20.30;23.37;100298.34;4952023;28;19914;-85
2023/11/26 14:07:01;;;;;;;;;;;;;;;19.89;23.51;100302.53;4925080;29;19919;-87
2023/11/26 14:09:53;;;;;;;;;;;;;;;19.24;23.84;100311.63;4963453;28;19918;-86
2023/11/26 14:12:41;;;;;;;;;;;;;;;19.60;25.46;100309.91;4973795;28;19915;-88
2023/11/26 14:15:29;;;;;;;;;;;;;;;19.25;25.91;100317.91;4925706;29;20381;-87
2023/11/26 14:18:21;;;;;;;;;;;;;;;18.91;24.72;100320.00;4957463;28;19918;-85
2023/11/26 14:21:12;;;;;;;;;;;;;;;18.34;25.79;100320.22;4951606;28;20383;-85
2023/11/26 14:24:03;;;;;;;;;;;;;;;17.14;27.27;100321.34;4951942;28;19919;-85
2023/11/26 14:26:57;;;;;;;;;;;;;;;16.89;27.88;100320.16;4944290;29;19931;-84
2023/11/26 14:29:50;;;;;;;;;;;;;;;16.61;27.70;100321.25;4946786;28;19914;-83
2023/11/26 14:32:47;;;;;;;;;;;;;;;16.64;27.89;100319.72;4927472;29;19914;-86
2023/11/26 14:35:41;;;;;;;;;;;;;;;16.19;28.28;100320.44;4974133;28;19906;-85
2023/11/26 14:38:33;;;;;;;;;;;;;;;16.29;28.45;100325.34;4949468;29;19931;-83
2023/11/26 14:41:25;;;;;;;;;;;;;;;15.78;28.77;100332.91;4944125;29;19914;-81
2023/11/26 14:44:20;;;;;;;;;;;;;;;15.94;29.57;100335.59;4964373;28;19914;-82
2023/11/26 14:47:12;;;;;;;;;;;;;;;15.82;29.42;100329.09;4930711;29;19915;-85
2023/11/26 14:50:04;;;;;;;;;;;;;;;15.90;29.96;100335.50;4943759;28;20384;-82
2023/11/26 14:52:56;;;;;;;;;;;;;;;15.26;30.93;100334.06;4930622;29;19915;-83
2023/11/26 14:55:48;;;;;;;;;;;;;;;14.86;31.35;100334.28;4942069;29;19919;-79
2023/11/26 14:58:40;;;;;;;;;;;;;;;14.42;31.01;100328.06;4953792;28;19918;-83
2023/11/26 15:01:32;;;;;;;;;;;;;;;13.51;32.80;100335.16;4930156;29;19914;-79
2023/11/26 15:04:24;;;;;;;;;;;;;;;13.33;33.94;100342.00;4940001;28;19915;-80
2023/11/26 15:07:13;;;;;;;;;;;;;;;13.28;34.12;100336.78;4932880;29;19922;-81
2023/11/26 15:10:06;;;;;;;;;;;;;;;13.36;33.74;100335.09;4933081;29;19914;-83
2023/11/26 15:12:57;;;;;;;;;;;;;;;13.08;34.31;100338.47;4947863;28;20305;-83
2023/11/26 15:15:49;;;;;;;;;;;;;;;13.06;34.68;100348.91;4954231;28;19931;-84
2023/11/26 15:18:40;;;;;;;;;;;;;;;12.67;36.08;100350.34;4957888;28;19918;-86
2023/11/26 15:21:32;;;;;;;;;;;;;;;12.44;36.57;100354.63;4955452;29;20561;-85
2023/11/26 15:24:24;;;;;;;;;;;;;;;12.41;35.99;100347.88;4974295;28;20114;-83
2023/11/26 15:27:11;;;;;;;;;;;;;;;11.96;37.48;100342.38;4963204;28;19906;-82
2023/11/26 15:30:03;;;;;;;;;;;;;;;11.70;37.23;100347.19;4955516;28;19931;-83
2023/11/26 15:32:48;;;;;;;;;;;;;;;11.36;39.83;100342.78;4963778;28;19918;-84
2023/11/26 15:35:38;;;;;;;;;;;;;;;11.28;40.07;100348.25;4961551;28;19906;-84
2023/11/26 15:38:26;;;;;;;;;;;;;;;11.34;39.38;100347.75;4976167;28;19906;-83
2023/11/26 15:41:47;;;;;;;;;;;;;;;11.60;38.13;100344.84;1409043;26;19922;-84
2023/11/26 15:44:40;;;;;;;;;;;;;;;11.55;37.97;100348.56;4953835;28;20202;-84
2023/11/26 15:47:34;;;;;;;;;;;;;;;11.44;39.29;100346.56;4956249;28;19910;-85
2023/11/26 15:50:20;;;;;;;;;;;;;;;11.43;38.48;100348.47;4961231;28;19907;-85
2023/11/26 15:53:07;;;;;;;;;;;;;;;11.29;38.24;100352.56;4949432;28;19907;-85
2023/11/26 15:55:56;;;;;;;;;;;;;;;11.24;38.38;100366.38;4962097;28;19906;-85
2023/11/26 15:59:09;;;;;;;;;;;;;;;11.41;37.54;100355.41;4960393;23;20241;-84
2023/11/26 16:02:02;;;;;;;;;;;;;;;11.17;38.76;100368.81;4955238;29;19907;-84
2023/11/26 16:04:51;;;;;;;;;;;;;;;10.56;41.17;100365.50;4943685;29;19903;-85
2023/11/26 16:07:41;;;;;;;;;;;;;;;10.32;41.84;100368.72;4954545;29;19899;-85
2023/11/26 16:13:33;;;;;;;;;;;;;;;9.85;43.34;100359.63;2035201;23;19913;-84
2023/11/26 16:16:27;;;;;;;;;;;;;;;9.47;44.46;100369.47;4966452;28;19907;-84
2023/11/26 16:19:19;;;;;;;;;;;;;;;9.37;44.58;100371.38;4958491;28;19918;-83
2023/11/26 16:22:08;;;;;;;;;;;;;;;9.74;43.38;100380.88;4963849;28;19915;-83
2023/11/26 16:24:55;;;;;;;;;;;;;;;10.12;42.36;100386.47;4948845;28;19907;-84
2023/11/26 16:27:43;;;;;;;;;;;;;;;10.10;42.24;100388.72;4948278;28;19927;-84
2023/11/26 16:30:32;;;;;;;;;;;;;;;9.83;42.90;100389.81;4950206;28;19911;-83
2023/11/26 16:33:38;;;;;;;;;;;;;;;9.44;44.14;100395.34;4934096;29;19907;-85
2023/11/26 16:36:27;;;;;;;;;;;;;;;9.82;42.75;100401.78;4948280;28;19907;-85
2023/11/26 16:39:20;;;;;;;;;;;;;;;9.95;41.98;100402.78;4936270;28;19907;-86
2023/11/26 16:42:05;;;;;;;;;;;;;;;9.63;43.04;100401.28;4925029;28;19906;-85
2023/11/26 16:44:55;;;;;;;;;;;;;;;9.85;42.16;100406.56;4954791;28;19907;-87
2023/11/26 16:47:49;;;;;;;;;;;;;;;9.82;42.00;100420.78;4958386;28;19907;-85
2023/11/26 16:50:36;;;;;;;;;;;;;;;9.42;42.84;100417.34;4947349;28;19907;-82
2023/11/26 16:53:32;;;;;;;;;;;;;;;9.66;42.38;100421.56;4957605;28;20389;-81
2023/11/26 16:56:23;;;;;;;;;;;;;;;9.56;42.67;100416.41;4947120;28;19922;-82
2023/11/26 16:59:11;;;;;;;;;;;;;;;9.33;43.67;100429.28;4943571;28;19906;-82
2023/11/26 17:02:01;;;;;;;;;;;;;;;9.29;43.82;100401.19;4949452;28;19919;-84
2023/11/26 17:04:48;;;;;;;;;;;;;;;9.55;43.96;100431.13;4943902;29;19911;-84
2023/11/26 17:07:33;;;;;;;;;;;;;;;9.36;43.57;100434.88;4942676;28;19907;-85
2023/11/26 17:10:23;;;;;;;;;;;;;;;9.33;45.02;100440.94;4942915;28;19995;-85
2023/11/26 17:13:12;;;;;;;;;;;;;;;9.42;45.63;100435.53;4956063;28;19911;-85
2023/11/26 17:18:55;;;;;;;;;;;;;;;8.42;45.91;100405.34;5092891;23;19918;-85
2023/11/26 17:21:49;;;;;;;;;;;;;;;8.01;47.47;100448.00;4970969;28;19906;-86
2023/11/26 17:24:37;;;;;;;;;;;;;;;8.12;46.67;100455.59;4944504;28;19907;-84
2023/11/26 17:27:22;;;;;;;;;;;;;;;7.89;47.86;100458.53;4954454;28;19907;-82
2023/11/26 17:30:09;;;;;;;;;;;;;;;7.80;48.27;100468.47;4960128;28;19922;-84
2023/11/26 17:32:56;;;;;;;;;;;;;;;8.05;48.23;100462.53;4969257;28;19918;-85
2023/11/26 17:35:44;;;;;;;;;;;;;;;7.90;48.50;100460.94;4976635;28;19907;-85
2023/11/26 17:38:33;;;;;;;;;;;;;;;8.13;48.01;100470.72;4953843;28;19906;-86
2023/11/26 17:41:19;;;;;;;;;;;;;;;8.25;48.05;100474.81;4978893;23;20166;-85
2023/11/26 17:44:06;;;;;;;;;;;;;;;8.27;49.49;100483.44;4955587;28;19922;-82
2023/11/26 17:46:54;;;;;;;;;;;;;;;8.17;48.49;100484.47;4959040;28;19926;-82
2023/11/26 17:49:45;;;;;;;;;;;;;;;8.40;47.46;100488.84;4972757;28;19902;-81
2023/11/26 17:52:30;;;;;;;;;;;;;;;8.46;48.17;100497.66;4928504;28;19923;-81
2023/11/26 17:55:19;;;;;;;;;;;;;;;8.01;47.96;100502.97;4953172;28;19926;-83
2023/11/26 17:58:10;;;;;;;;;;;;;;;7.79;48.64;100499.34;4961764;28;19907;-82
2023/11/26 18:00:58;;;;;;;;;;;;;;;7.99;49.10;100507.06;4941561;28;19923;-84
2023/11/26 18:03:53;;;;;;;;;;;;;;;8.48;50.82;100517.91;4927587;28;19927;-78
2023/11/26 18:06:43;;;;;;;;;;;;;;;8.25;48.57;100518.16;4910142;29;19915;-79
2023/11/26 18:09:30;;;;;;;;;;;;;;;8.21;48.24;100526.09;4919508;29;19923;-78
2023/11/26 18:12:19;;;;;;;;;;;;;;;8.34;49.26;100525.28;4921277;29;19915;-78
2023/11/26 18:15:12;;;;;;;;;;;;;;;8.61;48.42;100529.81;4924241;29;19914;-80
2023/11/26 18:18:02;;;;;;;;;;;;;;;8.58;47.92;100531.22;4907352;29;19919;-79
2023/11/26 18:20:50;;;;;;;;;;;;;;;8.31;48.09;100533.22;4920960;29;20336;-80
2023/11/26 18:23:40;;;;;;;;;;;;;;;8.12;49.20;100530.63;4923278;29;19915;-79
2023/11/26 18:26:32;;;;;;;;;;;;;;;8.20;48.74;100532.59;4923686;28;19911;-81
2023/11/26 18:29:24;;;;;;;;;;;;;;;8.08;48.56;100541.25;4927629;28;19927;-80
2023/11/26 18:32:14;;;;;;;;;;;;;;;8.00;48.85;100544.66;4925374;29;20316;-81
2023/11/26 18:35:06;;;;;;;;;;;;;;;8.16;48.20;100556.81;4919929;29;19923;-80
2023/11/26 18:38:00;;;;;;;;;;;;;;;8.04;48.70;100555.69;4933015;28;19927;-85
2023/11/26 18:40:53;;;;;;;;;;;;;;;8.12;49.05;100553.09;5136521;23;19923;-81
2023/11/26 18:43:41;;;;;;;;;;;;;;;8.52;47.92;100561.47;4979657;28;19918;-82
2023/11/26 18:46:37;;;;;;;;;;;;;;;8.65;47.55;100554.41;4981270;28;19922;-82
2023/11/26 18:49:27;;;;;;;;;;;;;;;8.26;47.62;100560.38;4992627;28;19906;-85
2023/11/26 18:52:14;;;;;;;;;;;;;;;8.56;47.72;100568.69;4994008;28;19906;-82
2023/11/26 18:55:03;;;;;;;;;;;;;;;8.29;49.00;100571.41;4991560;28;19926;-81
2023/11/26 18:57:55;;;;;;;;;;;;;;;8.78;47.77;100577.97;5003186;28;19918;-84
2023/11/26 19:00:47;;;;;;;;;;;;;;;8.65;46.57;100576.09;4980560;28;19906;-84
2023/11/26 19:03:39;;;;;;;;;;;;;;;8.66;47.59;100583.13;4980186;28;19906;-85
2023/11/26 19:06:34;;;;;;;;;;;;;;;8.64;45.87;100582.59;4993467;28;20043;-85
2023/11/26 19:09:26;;;;;;;;;;;;;;;8.39;46.90;100587.47;4999642;28;19906;-84
2023/11/26 19:12:16;;;;;;;;;;;;;;;8.64;46.98;100590.75;4997635;28;19911;-83
2023/11/26 19:15:05;;;;;;;;;;;;;;;8.44;47.29;100586.56;4972826;28;19907;-84
2023/11/26 19:17:57;;;;;;;;;;;;;;;8.23;46.75;100599.72;4996521;28;19906;-84